sensor_id;sensor_type;location;lat;lon;timestamp;pressure;altitude;pressure_sealevel;temperature;humidity
11041;BME280;5573;49.592;8.662;2022-08-01T00:00:50;99836.06;;;19.06;100.00
11041;BME280;5573;49.592;8.662;2022-08-01T00:03:38;99842.44;;;19.06;100.00
11041;BME280;5573;49.592;8.662;2022-08-01T00:06:26;99839.72;;;19.03;100.00
11041;BME280;5573;49.592;8.662;2022-08-01T00:09:14;99843.50;;;18.96;100.00
11041;BME280;5573;49.592;8.662;2022-08-01T00:12:11;99838.88;;;18.89;100.00
11041;BME280;5573;49.592;8.662;2022-08-01T00:14:59;99847.25;;;18.89;100.00
11041;BME280;5573;49.592;8.662;2022-08-01T00:17:48;99838.97;;;18.86;100.00
11041;BME280;5573;49.592;8.662;2022-08-01T00:20:36;99846.22;;;18.83;100.00
11041;BME280;5573;49.592;8.662;2022-08-01T00:23:24;99840.63;;;18.83;100.00
11041;BME280;5573;49.592;8.662;2022-08-01T00:26:12;99843.00;;;18.85;100.00
11041;BME280;5573;49.592;8.662;2022-08-01T00:29:02;99840.63;;;18.83;100.00
11041;BME280;5573;49.592;8.662;2022-08-01T00:31:57;99846.72;;;18.78;100.00
11041;BME280;5573;49.592;8.662;2022-08-01T00:34:45;99844.75;;;18.79;100.00
11041;BME280;5573;49.592;8.662;2022-08-01T00:37:35;99848.66;;;18.81;100.00
11041;BME280;5573;49.592;8.662;2022-08-01T00:40:23;99849.78;;;18.84;100.00
11041;BME280;5573;49.592;8.662;2022-08-01T00:43:11;99856.59;;;18.83;100.00
11041;BME280;5573;49.592;8.662;2022-08-01T00:46:00;99847.06;;;18.80;100.00
11041;BME280;5573;49.592;8.662;2022-08-01T00:48:48;99846.44;;;18.73;100.00
11041;BME280;5573;49.592;8.662;2022-08-01T00:51:36;99854.53;;;18.67;100.00
11041;BME280;5573;49.592;8.662;2022-08-01T00:54:25;99855.50;;;18.60;100.00
11041;BME280;5573;49.592;8.662;2022-08-01T00:57:14;99852.44;;;18.55;100.00
11041;BME280;5573;49.592;8.662;2022-08-01T01:00:22;99848.97;;;18.51;100.00
11041;BME280;5573;49.592;8.662;2022-08-01T01:03:14;99850.34;;;18.42;100.00
11041;BME280;5573;49.592;8.662;2022-08-01T01:06:11;99858.38;;;18.40;100.00
11041;BME280;5573;49.592;8.662;2022-08-01T01:09:18;99850.63;;;18.32;100.00
11041;BME280;5573;49.592;8.662;2022-08-01T01:12:17;99853.94;;;18.26;100.00
11041;BME280;5573;49.592;8.662;2022-08-01T01:15:09;99849.66;;;18.22;100.00
11041;BME280;5573;49.592;8.662;2022-08-01T01:18:03;99850.16;;;18.17;100.00
11041;BME280;5573;49.592;8.662;2022-08-01T01:20:59;99863.38;;;18.13;100.00
11041;BME280;5573;49.592;8.662;2022-08-01T01:23:57;99852.41;;;18.05;100.00
11041;BME280;5573;49.592;8.662;2022-08-01T01:26:55;99854.13;;;17.99;100.00
11041;BME280;5573;49.592;8.662;2022-08-01T01:29:50;99862.06;;;18.01;100.00
11041;BME280;5573;49.592;8.662;2022-08-01T01:32:48;99860.13;;;17.98;100.00
11041;BME280;5573;49.592;8.662;2022-08-01T01:35:42;99862.06;;;18.01;100.00
11041;BME280;5573;49.592;8.662;2022-08-01T01:38:34;99856.91;;;17.99;100.00
11041;BME280;5573;49.592;8.662;2022-08-01T01:41:24;99863.78;;;17.95;100.00
11041;BME280;5573;49.592;8.662;2022-08-01T01:44:14;99868.28;;;17.88;100.00
11041;BME280;5573;49.592;8.662;2022-08-01T01:47:06;99870.66;;;17.90;100.00
11041;BME280;5573;49.592;8.662;2022-08-01T01:49:55;99867.34;;;17.95;100.00
11041;BME280;5573;49.592;8.662;2022-08-01T01:52:44;99869.69;;;17.97;100.00
11041;BME280;5573;49.592;8.662;2022-08-01T01:55:34;99873.44;;;18.06;100.00
11041;BME280;5573;49.592;8.662;2022-08-01T01:58:38;99873.38;;;18.10;100.00
11041;BME280;5573;49.592;8.662;2022-08-01T02:01:28;99868.94;;;18.13;100.00
11041;BME280;5573;49.592;8.662;2022-08-01T02:04:40;99864.97;;;18.14;100.00
11041;BME280;5573;49.592;8.662;2022-08-01T02:07:30;99870.00;;;18.19;100.00
11041;BME280;5573;49.592;8.662;2022-08-01T02:10:20;99871.66;;;18.16;100.00
11041;BME280;5573;49.592;8.662;2022-08-01T02:13:15;99879.22;;;18.16;100.00
11041;BME280;5573;49.592;8.662;2022-08-01T02:16:08;99871.31;;;18.14;100.00
11041;BME280;5573;49.592;8.662;2022-08-01T02:18:58;99867.75;;;18.14;100.00
11041;BME280;5573;49.592;8.662;2022-08-01T02:21:50;99878.09;;;18.13;100.00
11041;BME280;5573;49.592;8.662;2022-08-01T02:24:43;99872.88;;;18.15;100.00
11041;BME280;5573;49.592;8.662;2022-08-01T02:27:39;99883.56;;;18.17;100.00
11041;BME280;5573;49.592;8.662;2022-08-01T02:30:32;99883.16;;;18.18;100.00
11041;BME280;5573;49.592;8.662;2022-08-01T02:33:24;99875.91;;;18.21;100.00
11041;BME280;5573;49.592;8.662;2022-08-01T02:36:13;99883.25;;;18.31;100.00
11041;BME280;5573;49.592;8.662;2022-08-01T02:39:21;99886.75;;;18.35;100.00
11041;BME280;5573;49.592;8.662;2022-08-01T02:42:11;99887.03;;;18.41;100.00
11041;BME280;5573;49.592;8.662;2022-08-01T02:45:02;99884.81;;;18.48;100.00
11041;BME280;5573;49.592;8.662;2022-08-01T02:47:55;99888.06;;;18.63;100.00
11041;BME280;5573;49.592;8.662;2022-08-01T02:50:47;99892.00;;;18.66;100.00
11041;BME280;5573;49.592;8.662;2022-08-01T02:53:37;99890.59;;;18.74;100.00
11041;BME280;5573;49.592;8.662;2022-08-01T02:56:32;99880.66;;;18.73;100.00
11041;BME280;5573;49.592;8.662;2022-08-01T02:59:24;99889.44;;;18.72;100.00
11041;BME280;5573;49.592;8.662;2022-08-01T03:02:17;99885.88;;;18.71;100.00
11041;BME280;5573;49.592;8.662;2022-08-01T03:05:07;99885.19;;;18.67;100.00
11041;BME280;5573;49.592;8.662;2022-08-01T03:07:56;99886.84;;;18.64;100.00
11041;BME280;5573;49.592;8.662;2022-08-01T03:10:50;99880.75;;;18.53;100.00
11041;BME280;5573;49.592;8.662;2022-08-01T03:13:41;99883.44;;;18.40;100.00
11041;BME280;5573;49.592;8.662;2022-08-01T03:16:32;99879.63;;;18.34;100.00
11041;BME280;5573;49.592;8.662;2022-08-01T03:19:22;99883.44;;;18.24;100.00
11041;BME280;5573;49.592;8.662;2022-08-01T03:22:12;99884.69;;;18.19;100.00
11041;BME280;5573;49.592;8.662;2022-08-01T03:25:01;99881.91;;;18.03;100.00
11041;BME280;5573;49.592;8.662;2022-08-01T03:27:55;99887.19;;;17.97;100.00
11041;BME280;5573;49.592;8.662;2022-08-01T03:30:46;99893.34;;;17.88;100.00
11041;BME280;5573;49.592;8.662;2022-08-01T03:33:36;99893.03;;;17.83;100.00
11041;BME280;5573;49.592;8.662;2022-08-01T03:36:25;99889.06;;;17.84;100.00
11041;BME280;5573;49.592;8.662;2022-08-01T03:39:16;99889.06;;;17.84;100.00
11041;BME280;5573;49.592;8.662;2022-08-01T03:42:08;99886.72;;;17.79;100.00
11041;BME280;5573;49.592;8.662;2022-08-01T03:45:03;99893.03;;;17.83;100.00
11041;BME280;5573;49.592;8.662;2022-08-01T03:47:58;99883.69;;;17.73;100.00
11041;BME280;5573;49.592;8.662;2022-08-01T03:50:48;99893.16;;;17.76;100.00
11041;BME280;5573;49.592;8.662;2022-08-01T03:53:38;99891.53;;;17.78;100.00
11041;BME280;5573;49.592;8.662;2022-08-01T03:56:29;99887.06;;;17.84;100.00
11041;BME280;5573;49.592;8.662;2022-08-01T03:59:19;99893.25;;;17.92;100.00
11041;BME280;5573;49.592;8.662;2022-08-01T04:02:08;99883.09;;;18.02;100.00
11041;BME280;5573;49.592;8.662;2022-08-01T04:04:58;99882.00;;;18.16;100.00
11041;BME280;5573;49.592;8.662;2022-08-01T04:07:48;99888.91;;;18.27;100.00
11041;BME280;5573;49.592;8.662;2022-08-01T04:10:42;99847.38;;;18.17;100.00
11041;BME280;5573;49.592;8.662;2022-08-01T04:13:30;99890.75;;;18.51;100.00
11041;BME280;5573;49.592;8.662;2022-08-01T04:16:24;99887.72;;;18.61;100.00
11041;BME280;5573;49.592;8.662;2022-08-01T04:19:12;99889.63;;;18.64;100.00
11041;BME280;5573;49.592;8.662;2022-08-01T04:22:02;99886.66;;;18.72;100.00
11041;BME280;5573;49.592;8.662;2022-08-01T04:24:53;99896.03;;;18.81;100.00
11041;BME280;5573;49.592;8.662;2022-08-01T04:27:48;99905.09;;;18.85;100.00
11041;BME280;5573;49.592;8.662;2022-08-01T04:30:39;99901.41;;;18.88;100.00
11041;BME280;5573;49.592;8.662;2022-08-01T04:33:29;99910.31;;;19.00;100.00
11041;BME280;5573;49.592;8.662;2022-08-01T04:36:20;99903.66;;;19.10;100.00
11041;BME280;5573;49.592;8.662;2022-08-01T04:39:12;99904.09;;;19.25;100.00
11041;BME280;5573;49.592;8.662;2022-08-01T04:42:01;99911.81;;;19.34;100.00
11041;BME280;5573;49.592;8.662;2022-08-01T04:44:50;99917.88;;;19.45;100.00
11041;BME280;5573;49.592;8.662;2022-08-01T04:47:39;99913.47;;;19.60;100.00
11041;BME280;5573;49.592;8.662;2022-08-01T04:50:28;99918.00;;;19.70;100.00
11041;BME280;5573;49.592;8.662;2022-08-01T04:53:19;99917.81;;;19.78;100.00
11041;BME280;5573;49.592;8.662;2022-08-01T04:56:10;99921.47;;;19.75;100.00
11041;BME280;5573;49.592;8.662;2022-08-01T04:59:00;99923.63;;;19.83;100.00
11041;BME280;5573;49.592;8.662;2022-08-01T05:02:14;99918.63;;;19.91;100.00
11041;BME280;5573;49.592;8.662;2022-08-01T05:05:02;99915.41;;;20.05;100.00
11041;BME280;5573;49.592;8.662;2022-08-01T05:07:52;99917.66;;;20.10;100.00
11041;BME280;5573;49.592;8.662;2022-08-01T05:10:40;99925.59;;;20.25;100.00
11041;BME280;5573;49.592;8.662;2022-08-01T05:13:30;99919.34;;;20.34;100.00
11041;BME280;5573;49.592;8.662;2022-08-01T05:16:18;99912.53;;;20.35;100.00
11041;BME280;5573;49.592;8.662;2022-08-01T05:19:06;99918.16;;;20.60;100.00
11041;BME280;5573;49.592;8.662;2022-08-01T05:21:54;99929.00;;;20.71;100.00
11041;BME280;5573;49.592;8.662;2022-08-01T05:24:46;99929.75;;;20.84;100.00
11041;BME280;5573;49.592;8.662;2022-08-01T05:27:35;99928.63;;;20.95;100.00
11041;BME280;5573;49.592;8.662;2022-08-01T05:30:29;99944.25;;;21.05;100.00
11041;BME280;5573;49.592;8.662;2022-08-01T05:33:17;99942.91;;;21.09;100.00
11041;BME280;5573;49.592;8.662;2022-08-01T05:36:07;99944.97;;;21.31;100.00
11041;BME280;5573;49.592;8.662;2022-08-01T05:38:55;99949.06;;;21.52;100.00
11041;BME280;5573;49.592;8.662;2022-08-01T05:41:43;99943.91;;;21.63;100.00
11041;BME280;5573;49.592;8.662;2022-08-01T05:44:31;99948.19;;;21.77;100.00
11041;BME280;5573;49.592;8.662;2022-08-01T05:47:21;99951.72;;;21.90;100.00
11041;BME280;5573;49.592;8.662;2022-08-01T05:50:09;99947.34;;;22.11;99.01
11041;BME280;5573;49.592;8.662;2022-08-01T05:52:57;99942.03;;;22.13;97.69
11041;BME280;5573;49.592;8.662;2022-08-01T05:55:45;99948.94;;;22.22;98.62
11041;BME280;5573;49.592;8.662;2022-08-01T05:58:33;99944.94;;;22.23;97.05
11041;BME280;5573;49.592;8.662;2022-08-01T06:01:21;99948.84;;;22.25;96.23
11041;BME280;5573;49.592;8.662;2022-08-01T06:04:10;99949.34;;;22.33;94.36
11041;BME280;5573;49.592;8.662;2022-08-01T06:06:58;99944.66;;;22.30;96.28
11041;BME280;5573;49.592;8.662;2022-08-01T06:09:46;99951.22;;;22.36;95.06
11041;BME280;5573;49.592;8.662;2022-08-01T06:12:35;99950.03;;;22.46;93.12
11041;BME280;5573;49.592;8.662;2022-08-01T06:15:23;99959.41;;;22.52;93.06
11041;BME280;5573;49.592;8.662;2022-08-01T06:18:11;99958.53;;;22.65;91.76
11041;BME280;5573;49.592;8.662;2022-08-01T06:21:00;99958.09;;;22.76;90.08
11041;BME280;5573;49.592;8.662;2022-08-01T06:23:48;99955.94;;;22.89;88.35
11041;BME280;5573;49.592;8.662;2022-08-01T06:26:36;99961.94;;;23.09;88.19
11041;BME280;5573;49.592;8.662;2022-08-01T06:29:24;99967.75;;;23.24;85.63
11041;BME280;5573;49.592;8.662;2022-08-01T06:32:16;99965.25;;;23.36;85.29
11041;BME280;5573;49.592;8.662;2022-08-01T06:35:13;99972.28;;;23.40;83.37
11041;BME280;5573;49.592;8.662;2022-08-01T06:38:03;99970.09;;;23.53;83.96
11041;BME280;5573;49.592;8.662;2022-08-01T06:40:51;99970.09;;;23.44;81.86
11041;BME280;5573;49.592;8.662;2022-08-01T06:43:39;99953.88;;;23.30;82.73
11041;BME280;5573;49.592;8.662;2022-08-01T06:46:27;99973.69;;;23.54;80.01
11041;BME280;5573;49.592;8.662;2022-08-01T06:49:17;99968.38;;;23.74;80.23
11041;BME280;5573;49.592;8.662;2022-08-01T06:52:05;99974.19;;;23.80;78.43
11041;BME280;5573;49.592;8.662;2022-08-01T06:54:56;99985.56;;;23.86;77.61
11041;BME280;5573;49.592;8.662;2022-08-01T06:57:48;99983.69;;;23.92;78.44
11041;BME280;5573;49.592;8.662;2022-08-01T07:00:36;99996.63;;;23.99;76.66
11041;BME280;5573;49.592;8.662;2022-08-01T07:03:24;99991.34;;;24.10;74.83
11041;BME280;5573;49.592;8.662;2022-08-01T07:06:32;99988.69;;;23.97;76.43
11041;BME280;5573;49.592;8.662;2022-08-01T07:09:21;99995.84;;;24.07;72.91
11041;BME280;5573;49.592;8.662;2022-08-01T07:12:10;99988.34;;;24.13;73.55
11041;BME280;5573;49.592;8.662;2022-08-01T07:14:58;99988.28;;;24.41;71.16
11041;BME280;5573;49.592;8.662;2022-08-01T07:17:46;99985.72;;;24.71;68.92
11041;BME280;5573;49.592;8.662;2022-08-01T07:20:34;99985.31;;;24.87;67.70
11041;BME280;5573;49.592;8.662;2022-08-01T07:23:38;99981.06;;;25.25;65.65
11041;BME280;5573;49.592;8.662;2022-08-01T07:26:32;99978.59;;;25.42;62.85
11041;BME280;5573;49.592;8.662;2022-08-01T07:29:22;99983.69;;;25.92;59.60
11041;BME280;5573;49.592;8.662;2022-08-01T07:32:10;99981.88;;;25.65;61.58
11041;BME280;5573;49.592;8.662;2022-08-01T07:34:58;99970.19;;;25.96;60.23
11041;BME280;5573;49.592;8.662;2022-08-01T07:37:46;99966.94;;;25.88;60.36
11041;BME280;5573;49.592;8.662;2022-08-01T07:40:35;99971.50;;;25.86;60.12
11041;BME280;5573;49.592;8.662;2022-08-01T07:43:23;99972.00;;;25.84;60.38
11041;BME280;5573;49.592;8.662;2022-08-01T07:46:13;99969.16;;;26.23;57.46
11041;BME280;5573;49.592;8.662;2022-08-01T07:49:01;99960.97;;;26.40;57.79
11041;BME280;5573;49.592;8.662;2022-08-01T07:51:49;99952.00;;;25.97;57.95
11041;BME280;5573;49.592;8.662;2022-08-01T07:54:50;99963.28;;;26.27;58.06
11041;BME280;5573;49.592;8.662;2022-08-01T07:57:38;99968.25;;;26.32;57.43
11041;BME280;5573;49.592;8.662;2022-08-01T08:00:26;99966.97;;;26.33;56.76
11041;BME280;5573;49.592;8.662;2022-08-01T08:03:16;99963.00;;;26.69;55.79
11041;BME280;5573;49.592;8.662;2022-08-01T08:06:04;99964.28;;;27.24;54.48
11041;BME280;5573;49.592;8.662;2022-08-01T08:08:53;99962.34;;;27.77;52.37
11041;BME280;5573;49.592;8.662;2022-08-01T08:11:42;99960.09;;;28.39;50.37
11041;BME280;5573;49.592;8.662;2022-08-01T08:14:33;99958.31;;;28.68;48.51
11041;BME280;5573;49.592;8.662;2022-08-01T08:17:22;99971.34;;;28.60;49.14
11041;BME280;5573;49.592;8.662;2022-08-01T08:20:12;99975.28;;;27.63;51.59
11041;BME280;5573;49.592;8.662;2022-08-01T08:23:02;99971.19;;;27.23;52.54
11041;BME280;5573;49.592;8.662;2022-08-01T08:26:29;99968.47;;;26.93;54.41
11041;BME280;5573;49.592;8.662;2022-08-01T08:29:17;99944.41;;;26.63;54.52
11041;BME280;5573;49.592;8.662;2022-08-01T08:32:06;99969.84;;;26.83;53.78
11041;BME280;5573;49.592;8.662;2022-08-01T08:34:55;99969.97;;;26.74;54.55
11041;BME280;5573;49.592;8.662;2022-08-01T08:37:45;99963.38;;;26.97;55.04
11041;BME280;5573;49.592;8.662;2022-08-01T08:40:36;99965.09;;;27.10;53.94
11041;BME280;5573;49.592;8.662;2022-08-01T08:43:25;99961.00;;;27.11;53.75
11041;BME280;5573;49.592;8.662;2022-08-01T08:46:14;99956.72;;;27.56;53.24
11041;BME280;5573;49.592;8.662;2022-08-01T08:49:17;99960.19;;;27.25;52.93
11041;BME280;5573;49.592;8.662;2022-08-01T08:52:06;99962.41;;;27.21;52.99
11041;BME280;5573;49.592;8.662;2022-08-01T08:54:58;99957.31;;;27.05;53.65
11041;BME280;5573;49.592;8.662;2022-08-01T08:57:47;99962.38;;;27.36;53.20
11041;BME280;5573;49.592;8.662;2022-08-01T09:00:35;99958.94;;;27.26;53.26
11041;BME280;5573;49.592;8.662;2022-08-01T09:03:23;99958.75;;;26.94;53.66
11041;BME280;5573;49.592;8.662;2022-08-01T09:06:11;99968.03;;;26.80;53.55
11041;BME280;5573;49.592;8.662;2022-08-01T09:09:00;99953.16;;;26.65;53.02
11041;BME280;5573;49.592;8.662;2022-08-01T09:11:50;99953.41;;;26.82;53.71
11041;BME280;5573;49.592;8.662;2022-08-01T09:14:45;99958.03;;;27.00;53.30
11041;BME280;5573;49.592;8.662;2022-08-01T09:17:40;99952.66;;;27.02;52.78
11041;BME280;5573;49.592;8.662;2022-08-01T09:20:30;99958.56;;;27.39;52.09
11041;BME280;5573;49.592;8.662;2022-08-01T09:23:31;99960.06;;;27.34;50.74
11041;BME280;5573;49.592;8.662;2022-08-01T09:26:20;99954.44;;;26.99;51.66
11041;BME280;5573;49.592;8.662;2022-08-01T09:29:19;99969.03;;;27.33;51.29
11041;BME280;5573;49.592;8.662;2022-08-01T09:32:24;99963.03;;;27.72;49.86
11041;BME280;5573;49.592;8.662;2022-08-01T09:35:23;99965.56;;;28.16;50.10
11041;BME280;5573;49.592;8.662;2022-08-01T09:38:21;99961.00;;;28.25;49.26
11041;BME280;5573;49.592;8.662;2022-08-01T09:41:09;99958.66;;;28.17;48.92
11041;BME280;5573;49.592;8.662;2022-08-01T09:44:00;99973.59;;;27.97;48.74
11041;BME280;5573;49.592;8.662;2022-08-01T09:46:51;99975.28;;;28.10;49.05
11041;BME280;5573;49.592;8.662;2022-08-01T09:49:40;99969.72;;;27.95;49.82
11041;BME280;5573;49.592;8.662;2022-08-01T09:52:38;99971.50;;;28.18;48.84
11041;BME280;5573;49.592;8.662;2022-08-01T09:55:27;99973.00;;;27.67;48.35
11041;BME280;5573;49.592;8.662;2022-08-01T09:58:15;99967.53;;;27.37;50.70
11041;BME280;5573;49.592;8.662;2022-08-01T10:01:03;99963.66;;;27.82;50.24
11041;BME280;5573;49.592;8.662;2022-08-01T10:04:06;99970.38;;;27.84;49.00
11041;BME280;5573;49.592;8.662;2022-08-01T10:07:04;99955.75;;;28.38;49.01
11041;BME280;5573;49.592;8.662;2022-08-01T10:09:53;99954.44;;;28.71;47.36
11041;BME280;5573;49.592;8.662;2022-08-01T10:12:42;99959.88;;;29.12;47.35
11041;BME280;5573;49.592;8.662;2022-08-01T10:15:33;99962.06;;;29.39;46.23
11041;BME280;5573;49.592;8.662;2022-08-01T10:18:23;99961.56;;;29.47;44.40
11041;BME280;5573;49.592;8.662;2022-08-01T10:21:14;99951.28;;;29.55;45.15
11041;BME280;5573;49.592;8.662;2022-08-01T10:24:23;99951.25;;;28.95;45.44
11041;BME280;5573;49.592;8.662;2022-08-01T10:27:14;99955.41;;;28.99;46.04
11041;BME280;5573;49.592;8.662;2022-08-01T10:30:23;99959.84;;;28.69;46.73
11041;BME280;5573;49.592;8.662;2022-08-01T10:33:11;99949.44;;;28.92;46.94
11041;BME280;5573;49.592;8.662;2022-08-01T10:36:21;99948.88;;;29.31;45.47
11041;BME280;5573;49.592;8.662;2022-08-01T10:39:12;99927.06;;;29.54;45.05
11041;BME280;5573;49.592;8.662;2022-08-01T10:42:06;99952.69;;;29.16;44.98
11041;BME280;5573;49.592;8.662;2022-08-01T10:45:02;99951.13;;;29.10;45.45
11041;BME280;5573;49.592;8.662;2022-08-01T10:48:01;99947.66;;;29.49;44.98
11041;BME280;5573;49.592;8.662;2022-08-01T10:50:52;99943.53;;;28.95;45.41
11041;BME280;5573;49.592;8.662;2022-08-01T10:53:47;99939.13;;;29.37;44.44
11041;BME280;5573;49.592;8.662;2022-08-01T10:56:43;99938.66;;;29.62;43.89
11041;BME280;5573;49.592;8.662;2022-08-01T10:59:31;99932.94;;;29.39;44.20
11041;BME280;5573;49.592;8.662;2022-08-01T11:02:37;99937.06;;;28.89;45.21
11041;BME280;5573;49.592;8.662;2022-08-01T11:05:32;99935.41;;;28.39;45.56
11041;BME280;5573;49.592;8.662;2022-08-01T11:08:22;99931.31;;;28.41;45.64
11041;BME280;5573;49.592;8.662;2022-08-01T11:11:12;99927.41;;;28.32;46.37
11041;BME280;5573;49.592;8.662;2022-08-01T11:14:01;99924.28;;;28.30;46.72
11041;BME280;5573;49.592;8.662;2022-08-01T11:16:50;99927.56;;;28.49;47.00
11041;BME280;5573;49.592;8.662;2022-08-01T11:20:06;99920.44;;;28.33;46.58
11041;BME280;5573;49.592;8.662;2022-08-01T11:23:26;99919.06;;;28.17;47.06
11041;BME280;5573;49.592;8.662;2022-08-01T11:26:23;99916.13;;;28.38;46.49
11041;BME280;5573;49.592;8.662;2022-08-01T11:29:18;99924.38;;;29.28;44.61
11041;BME280;5573;49.592;8.662;2022-08-01T11:32:23;99908.47;;;29.47;43.54
11041;BME280;5573;49.592;8.662;2022-08-01T11:35:11;99915.16;;;29.38;43.36
11041;BME280;5573;49.592;8.662;2022-08-01T11:38:24;99911.63;;;28.95;44.40
11041;BME280;5573;49.592;8.662;2022-08-01T11:41:16;99909.16;;;28.71;44.98
11041;BME280;5573;49.592;8.662;2022-08-01T11:44:24;99905.88;;;28.78;44.70
11041;BME280;5573;49.592;8.662;2022-08-01T11:47:16;99899.16;;;28.75;44.53
11041;BME280;5573;49.592;8.662;2022-08-01T11:50:30;99901.34;;;28.54;45.69
11041;BME280;5573;49.592;8.662;2022-08-01T11:53:18;99898.56;;;28.60;45.78
11041;BME280;5573;49.592;8.662;2022-08-01T11:56:08;99890.75;;;28.92;45.04
11041;BME280;5573;49.592;8.662;2022-08-01T11:58:58;99897.38;;;29.38;43.59
11041;BME280;5573;49.592;8.662;2022-08-01T12:01:48;99893.91;;;29.83;42.75
11041;BME280;5573;49.592;8.662;2022-08-01T12:04:47;99895.97;;;30.10;41.79
11041;BME280;5573;49.592;8.662;2022-08-01T12:07:36;99898.28;;;30.40;41.62
11041;BME280;5573;49.592;8.662;2022-08-01T12:10:26;99891.59;;;30.37;41.75
11041;BME280;5573;49.592;8.662;2022-08-01T12:13:20;99877.94;;;30.13;42.25
11041;BME280;5573;49.592;8.662;2022-08-01T12:16:09;99887.31;;;31.00;40.16
11041;BME280;5573;49.592;8.662;2022-08-01T12:18:59;99876.78;;;31.43;39.70
11041;BME280;5573;49.592;8.662;2022-08-01T12:22:08;99869.06;;;31.37;38.42
11041;BME280;5573;49.592;8.662;2022-08-01T12:25:05;99873.88;;;31.01;40.11
11041;BME280;5573;49.592;8.662;2022-08-01T12:27:54;99870.16;;;30.42;41.04
11041;BME280;5573;49.592;8.662;2022-08-01T12:30:47;99874.31;;;30.24;40.07
11041;BME280;5573;49.592;8.662;2022-08-01T12:33:36;99866.31;;;30.00;39.40
11041;BME280;5573;49.592;8.662;2022-08-01T12:36:28;99876.63;;;30.20;39.33
11041;BME280;5573;49.592;8.662;2022-08-01T12:39:17;99877.91;;;30.53;39.34
11041;BME280;5573;49.592;8.662;2022-08-01T12:42:07;99875.28;;;30.66;38.71
11041;BME280;5573;49.592;8.662;2022-08-01T12:44:57;99867.91;;;31.10;38.39
11041;BME280;5573;49.592;8.662;2022-08-01T12:47:46;99860.81;;;31.34;36.69
11041;BME280;5573;49.592;8.662;2022-08-01T12:50:37;99856.59;;;30.99;37.86
11041;BME280;5573;49.592;8.662;2022-08-01T12:53:27;99872.03;;;31.62;37.34
11041;BME280;5573;49.592;8.662;2022-08-01T12:56:31;99873.94;;;31.84;37.13
11041;BME280;5573;49.592;8.662;2022-08-01T12:59:21;99868.78;;;31.47;37.58
11041;BME280;5573;49.592;8.662;2022-08-01T13:02:10;99855.31;;;30.94;37.49
11041;BME280;5573;49.592;8.662;2022-08-01T13:04:59;99863.06;;;30.99;38.99
11041;BME280;5573;49.592;8.662;2022-08-01T13:07:48;99863.56;;;31.04;38.92
11041;BME280;5573;49.592;8.662;2022-08-01T13:10:38;99862.06;;;30.80;38.53
11041;BME280;5573;49.592;8.662;2022-08-01T13:13:37;99850.16;;;30.98;38.69
11041;BME280;5573;49.592;8.662;2022-08-01T13:16:26;99862.84;;;30.92;38.42
11041;BME280;5573;49.592;8.662;2022-08-01T13:19:44;99854.13;;;31.31;37.90
11041;BME280;5573;49.592;8.662;2022-08-01T13:22:34;99865.16;;;30.82;38.82
11041;BME280;5573;49.592;8.662;2022-08-01T13:25:23;99851.47;;;30.86;38.32
11041;BME280;5573;49.592;8.662;2022-08-01T13:28:18;99842.63;;;31.07;37.92
11041;BME280;5573;49.592;8.662;2022-08-01T13:31:07;99848.31;;;31.54;36.96
11041;BME280;5573;49.592;8.662;2022-08-01T13:33:55;99852.34;;;31.70;37.51
11041;BME280;5573;49.592;8.662;2022-08-01T13:36:46;99845.00;;;31.86;37.63
11041;BME280;5573;49.592;8.662;2022-08-01T13:39:35;99843.06;;;31.99;35.95
11041;BME280;5573;49.592;8.662;2022-08-01T13:42:31;99852.06;;;31.26;37.31
11041;BME280;5573;49.592;8.662;2022-08-01T13:45:20;99858.00;;;30.70;38.05
11041;BME280;5573;49.592;8.662;2022-08-01T13:48:09;99846.84;;;30.83;37.87
11041;BME280;5573;49.592;8.662;2022-08-01T13:51:04;99833.00;;;30.51;38.27
11041;BME280;5573;49.592;8.662;2022-08-01T13:54:08;99838.28;;;31.00;37.50
11041;BME280;5573;49.592;8.662;2022-08-01T13:56:57;99842.00;;;31.31;37.31
11041;BME280;5573;49.592;8.662;2022-08-01T13:59:45;99838.22;;;31.58;36.48
11041;BME280;5573;49.592;8.662;2022-08-01T14:02:34;99828.97;;;31.83;35.21
11041;BME280;5573;49.592;8.662;2022-08-01T14:05:22;99830.16;;;31.98;35.68
11041;BME280;5573;49.592;8.662;2022-08-01T14:08:11;99829.84;;;32.02;34.43
11041;BME280;5573;49.592;8.662;2022-08-01T14:11:00;99825.41;;;31.76;35.68
11041;BME280;5573;49.592;8.662;2022-08-01T14:13:53;99818.06;;;31.56;35.43
11041;BME280;5573;49.592;8.662;2022-08-01T14:16:42;99821.03;;;31.34;35.91
11041;BME280;5573;49.592;8.662;2022-08-01T14:19:32;99831.66;;;31.28;36.68
11041;BME280;5573;49.592;8.662;2022-08-01T14:22:25;99832.59;;;30.94;36.63
11041;BME280;5573;49.592;8.662;2022-08-01T14:25:13;99832.66;;;30.89;37.43
11041;BME280;5573;49.592;8.662;2022-08-01T14:28:21;99827.22;;;30.85;37.20
11041;BME280;5573;49.592;8.662;2022-08-01T14:31:10;99821.03;;;30.75;37.72
11041;BME280;5573;49.592;8.662;2022-08-01T14:33:58;99826.78;;;30.58;38.34
11041;BME280;5573;49.592;8.662;2022-08-01T14:36:48;99837.16;;;30.45;38.25
11041;BME280;5573;49.592;8.662;2022-08-01T14:39:36;99839.16;;;30.61;38.41
11041;BME280;5573;49.592;8.662;2022-08-01T14:42:24;99826.03;;;30.52;37.44
11041;BME280;5573;49.592;8.662;2022-08-01T14:45:13;99838.94;;;30.42;38.40
11041;BME280;5573;49.592;8.662;2022-08-01T14:48:01;99831.47;;;30.45;38.14
11041;BME280;5573;49.592;8.662;2022-08-01T14:50:49;99832.50;;;30.25;38.10
11041;BME280;5573;49.592;8.662;2022-08-01T14:53:38;99833.56;;;30.38;38.53
11041;BME280;5573;49.592;8.662;2022-08-01T14:56:32;99828.66;;;30.16;38.27
11041;BME280;5573;49.592;8.662;2022-08-01T14:59:20;99829.94;;;30.27;38.39
11041;BME280;5573;49.592;8.662;2022-08-01T15:02:09;99825.75;;;30.62;37.90
11041;BME280;5573;49.592;8.662;2022-08-01T15:04:57;99822.50;;;30.99;37.42
11041;BME280;5573;49.592;8.662;2022-08-01T15:07:46;99817.56;;;31.11;36.51
11041;BME280;5573;49.592;8.662;2022-08-01T15:10:41;99816.31;;;31.00;36.11
11041;BME280;5573;49.592;8.662;2022-08-01T15:13:29;99815.53;;;31.06;36.17
11041;BME280;5573;49.592;8.662;2022-08-01T15:16:17;99817.13;;;30.95;35.94
11041;BME280;5573;49.592;8.662;2022-08-01T15:19:05;99818.25;;;30.64;36.96